| time (UTC) | temp F | wind direction | speed knots | gust knots | rain 1hr in | rain 24hr in | rain mn in | humidity % | barometer mb |
| 20260507195921 | 67 | 277 | 1.7 | 1.7 | 0.00 | 0.48 | 0.48 | 32 | 1004.7 |
| 20260507195419 | 66 | 324 | 1.7 | 1.7 | 0.00 | 0.48 | 0.48 | 33 | 1004.5 |
| 20260507194916 | 66 | 354 | 1.7 | 2.6 | 0.00 | 0.48 | 0.48 | 35 | 1004.9 |
| 20260507194413 | 67 | 231 | 0.9 | 0.9 | 0.00 | 0.48 | 0.48 | 34 | 1004.8 |
| 20260507193909 | 67 | 239 | 2.6 | 3.5 | 0.00 | 0.48 | 0.48 | 33 | 1005.0 |
| 20260507193406 | 67 | 301 | 0.9 | 1.7 | 0.00 | 0.48 | 0.48 | 40 | 1005.0 |
| 20260507192902 | 67 | 185 | 0.9 | 1.7 | 0.00 | 0.48 | 0.48 | 32 | 1005.1 |
| 20260507192358 | 66 | 28 | 1.7 | 2.6 | 0.00 | 0.48 | 0.48 | 33 | 1004.9 |
| 20260507191855 | 66 | 353 | 0.9 | 1.7 | 0.00 | 0.48 | 0.48 | 35 | 1005.1 |
| 20260507191351 | 66 | 353 | 0.9 | 0.9 | 0.00 | 0.48 | 0.48 | 36 | 1005.0 |
| 20260507190848 | 67 | 227 | 0.9 | 1.7 | 0.00 | 0.48 | 0.48 | 33 | 1005.5 |
| 20260507190346 | 66 | 193 | 1.7 | 3.5 | 0.00 | 0.48 | 0.48 | 32 | 1005.3 |
| 20260507185845 | 66 | 258 | 4.3 | 6.1 | 0.00 | 0.48 | 0.48 | 33 | 1005.6 |
| 20260507185342 | 66 | 239 | 1.7 | 1.7 | 0.00 | 0.48 | 0.48 | 36 | 1005.6 |
| 20260507184839 | 65 | 219 | 0.9 | 0.9 | 0.00 | 0.48 | 0.48 | 36 | 1005.5 |
| 20260507184337 | 66 | 48 | 3.5 | 5.2 | 0.00 | 0.48 | 0.48 | 32 | 1005.9 |
| 20260507183833 | 65 | 168 | 0.9 | 1.7 | 0.00 | 0.48 | 0.48 | 35 | 1005.8 |
| 20260507183330 | 65 | 279 | 2.6 | 3.5 | 0.00 | 0.48 | 0.48 | 32 | 1005.9 |
| 20260507182828 | 65 | 49 | 6.1 | 9.6 | 0.00 | 0.48 | 0.48 | 33 | 1005.9 |
| 20260507182323 | 65 | 236 | 0.9 | 1.7 | 0.00 | 0.48 | 0.48 | 35 | 1006.1 |
| 20260507181820 | 64 | 291 | 1.7 | 2.6 | 0.00 | 0.48 | 0.48 | 36 | 1006.1 |
| 20260507181316 | 66 | 231 | 0.0 | 0.9 | 0.00 | 0.48 | 0.48 | 34 | 1006.0 |
| 20260507180813 | 65 | 220 | 1.7 | 1.7 | 0.00 | 0.48 | 0.48 | 35 | 1006.1 |
| 20260507180310 | 64 | 60 | 1.7 | 1.7 | 0.00 | 0.48 | 0.48 | 38 | 1005.9 |
| 20260507175805 | 65 | 187 | 1.7 | 2.6 | 0.00 | 0.48 | 0.48 | 37 | 1006.1 |
| 20260507175306 | 65 | 182 | 0.9 | 0.9 | 0.00 | 0.48 | 0.48 | 48 | 1006.2 |
| 20260507174759 | 64 | 243 | 4.3 | 5.2 | 0.00 | 0.48 | 0.48 | 39 | 1005.9 |
| 20260507174257 | 64 | 254 | 1.7 | 2.6 | 0.00 | 0.48 | 0.48 | 47 | 1006.0 |
| 20260507173755 | 64 | 72 | 0.9 | 1.7 | 0.00 | 0.48 | 0.48 | 44 | 1006.3 |
| 20260507173252 | 64 | 268 | 0.9 | 0.9 | 0.00 | 0.48 | 0.48 | 46 | 1006.3 |
| 20260507172748 | 62 | 69 | 0.0 | 0.9 | 0.00 | 0.48 | 0.48 | 54 | 1006.2 |
| 20260507172245 | 63 | 267 | 3.5 | 3.5 | 0.00 | 0.48 | 0.48 | 52 | 1006.1 |
| 20260507171740 | 62 | 54 | 0.9 | 0.9 | 0.00 | 0.48 | 0.48 | 54 | 1006.2 |
| 20260507171238 | 61 | 83 | 1.7 | 1.7 | 0.00 | 0.48 | 0.48 | 53 | 1006.3 |
| 20260507170735 | 61 | 86 | 0.0 | 0.9 | 0.00 | 0.48 | 0.48 | 57 | 1006.5 |
| 20260507170231 | 61 | 222 | 0.9 | 0.9 | 0.00 | 0.48 | 0.48 | 55 | 1006.5 |
| 20260507165727 | 61 | 287 | 1.7 | 2.6 | 0.00 | 0.48 | 0.48 | 52 | 1006.7 |
| 20260507165223 | 62 | 302 | 0.9 | 0.9 | 0.00 | 0.48 | 0.48 | 52 | 1006.7 |
| 20260507164719 | 64 | 242 | 2.6 | 2.6 | 0.00 | 0.48 | 0.48 | 51 | 1006.5 |
| 20260507164217 | 63 | 240 | 2.6 | 3.5 | 0.00 | 0.48 | 0.48 | 52 | 1006.6 |
| 20260507163714 | 63 | 74 | 1.7 | 3.5 | 0.00 | 0.48 | 0.48 | 51 | 1006.7 |
| 20260507163212 | 61 | 69 | 1.7 | 2.6 | 0.00 | 0.48 | 0.48 | 55 | 1006.8 |
| 20260507162708 | 60 | 199 | 1.7 | 2.6 | 0.00 | 0.48 | 0.48 | 60 | 1006.9 |
| 20260507162204 | 60 | 247 | 1.7 | 1.7 | 0.00 | 0.48 | 0.48 | 64 | 1007.0 |
| 20260507161700 | 60 | 106 | 0.0 | 0.0 | 0.00 | 0.48 | 0.48 | 59 | 1006.9 |
| 20260507161156 | 60 | 300 | 0.9 | 1.7 | 0.00 | 0.48 | 0.48 | 60 | 1006.9 |
| 20260507160653 | 61 | 55 | 1.7 | 1.7 | 0.00 | 0.48 | 0.48 | 57 | 1007.0 |
| 20260507160145 | 60 | 332 | 0.9 | 0.9 | 0.00 | 0.48 | 0.48 | 57 | 1007.2 |
| 20260507155640 | 60 | 216 | 0.9 | 0.9 | 0.00 | 0.48 | 0.48 | 58 | 1007.2 |
| 20260507155137 | 60 | 212 | 0.0 | 0.0 | 0.00 | 0.48 | 0.48 | 54 | 1007.4 |
| 20260507154633 | 60 | 75 | 3.5 | 3.5 | 0.00 | 0.48 | 0.48 | 55 | 1007.5 |
| 20260507154131 | 59 | 227 | 1.7 | 1.7 | 0.00 | 0.48 | 0.48 | 61 | 1007.4 |
| 20260507153626 | 59 | 71 | 0.9 | 1.7 | 0.00 | 0.48 | 0.48 | 57 | 1007.5 |
| 20260507153123 | 60 | 21 | 0.9 | 0.9 | 0.00 | 0.48 | 0.48 | 56 | 1007.2 |
| 20260507152620 | 60 | 19 | 1.7 | 1.7 | 0.00 | 0.48 | 0.48 | 64 | 1007.5 |
| 20260507152116 | 60 | 42 | 2.6 | 3.5 | 0.00 | 0.48 | 0.48 | 55 | 1007.5 |
| 20260507151612 | 60 | 249 | 3.5 | 5.2 | 0.00 | 0.48 | 0.48 | 57 | 1007.4 |
| 20260507151110 | 60 | 247 | 2.6 | 3.5 | 0.00 | 0.48 | 0.48 | 59 | 1007.6 |
| 20260507150607 | 60 | 141 | 1.7 | 2.6 | 0.00 | 0.48 | 0.48 | 57 | 1007.6 |
| 20260507145558 | 59 | 212 | 0.9 | 0.9 | 0.00 | 0.48 | 0.48 | 66 | 1007.8 |
| 20260507145056 | 59 | 67 | 1.7 | 1.7 | 0.00 | 0.48 | 0.48 | 62 | 1007.8 |
| 20260507144552 | 59 | 264 | 0.0 | 0.9 | 0.00 | 0.48 | 0.48 | 61 | 1007.7 |
| 20260507144050 | 59 | 65 | 0.9 | 1.7 | 0.00 | 0.48 | 0.48 | 64 | 1007.8 |
| 20260507143546 | 59 | 206 | 0.9 | 1.7 | 0.00 | 0.48 | 0.48 | 64 | 1007.8 |
| 20260507143045 | 59 | 337 | 1.7 | 2.6 | 0.00 | 0.48 | 0.48 | 65 | 1007.4 |
| 20260507142544 | 58 | 313 | 0.9 | 0.9 | 0.00 | 0.48 | 0.48 | 68 | 1007.7 |
| 20260507142042 | 57 | 249 | 2.6 | 2.6 | 0.00 | 0.48 | 0.48 | 74 | 1007.8 |
| 20260507141538 | 57 | 68 | 1.7 | 1.7 | 0.00 | 0.48 | 0.48 | 70 | 1007.9 |
| 20260507141035 | 57 | 195 | 0.9 | 1.7 | 0.00 | 0.48 | 0.48 | 78 | 1008.1 |
| 20260507140532 | 55 | 171 | 0.0 | 0.9 | 0.00 | 0.48 | 0.48 | 71 | 1008.0 |
| 20260507140029 | 55 | 47 | 1.7 | 2.6 | 0.00 | 0.48 | 0.48 | 74 | 1008.2 |
| 20260507135526 | 55 | 20 | 4.3 | 7.0 | 0.00 | 0.48 | 0.48 | 76 | 1008.2 |
| 20260507135023 | 55 | 204 | 0.9 | 0.9 | 0.00 | 0.48 | 0.48 | 85 | 1007.9 |
| 20260507134520 | 54 | 344 | 0.9 | 1.7 | 0.00 | 0.48 | 0.48 | 84 | 1008.0 |
| 20260507134015 | 54 | 211 | 0.9 | 1.7 | 0.00 | 0.48 | 0.48 | 89 | 1008.1 |
| 20260507133512 | 53 | 103 | 0.9 | 1.7 | 0.00 | 0.48 | 0.48 | 91 | 1008.1 |
| 20260507133010 | 52 | 240 | 0.9 | 1.7 | 0.00 | 0.48 | 0.48 | 92 | 1008.0 |
| 20260507132506 | 52 | 162 | 0.9 | 0.9 | 0.00 | 0.48 | 0.48 | 94 | 1008.3 |
| 20260507132002 | 52 | 241 | 0.9 | 1.7 | 0.00 | 0.48 | 0.48 | 94 | 1008.2 |
| 20260507131459 | 52 | 207 | 0.0 | 0.0 | 0.00 | 0.48 | 0.48 | 96 | 1008.0 |
| 20260507130956 | 52 | 201 | 0.9 | 0.9 | 0.00 | 0.48 | 0.48 | 96 | 1008.3 |
| 20260507130453 | 51 | 192 | 0.9 | 1.7 | 0.00 | 0.48 | 0.48 | 97 | 1008.2 |
| 20260507125952 | 52 | 168 | 0.0 | 0.9 | 0.00 | 0.48 | 0.48 | 98 | 1008.0 |
| 20260507125450 | 51 | 264 | 0.0 | 0.9 | 0.00 | 0.48 | 0.48 | 99 | 1008.0 |
| 20260507124947 | 51 | 207 | 0.0 | 0.0 | 0.00 | 0.48 | 0.48 | 99 | 1008.0 |
| 20260507124443 | 50 | 213 | 0.0 | 0.0 | 0.00 | 0.48 | 0.48 | 99 | 1008.2 |
| 20260507123941 | 50 | 209 | 0.0 | 0.0 | 0.00 | 0.48 | 0.48 | 99 | 1008.0 |
| 20260507123439 | 50 | 154 | 0.0 | 0.0 | 0.00 | 0.48 | 0.48 | 99 | 1008.0 |
| 20260507122935 | 49 | 222 | 0.0 | 0.0 | 0.00 | 0.48 | 0.48 | 99 | 1008.6 |
| 20260507122430 | 49 | 197 | 0.0 | 0.0 | 0.00 | 0.48 | 0.48 | 99 | 1008.4 |
| 20260507121927 | 50 | 201 | 0.0 | 0.0 | 0.00 | 0.48 | 0.48 | 99 | 1008.7 |
| 20260507121422 | 49 | 207 | 0.9 | 0.9 | 0.00 | 0.48 | 0.48 | 99 | 1008.6 |
| 20260507120919 | 49 | 188 | 0.0 | 0.0 | 0.00 | 0.48 | 0.48 | 99 | 1008.1 |
| 20260507120415 | 49 | 205 | 0.0 | 0.9 | 0.00 | 0.48 | 0.48 | 99 | 1008.2 |
| 20260507115912 | 49 | 192 | 0.0 | 0.0 | 0.00 | 0.48 | 0.48 | 99 | 1008.0 |
| 20260507115408 | 48 | 191 | 0.0 | 0.0 | 0.00 | 0.48 | 0.48 | 99 | 1008.3 |
| 20260507114903 | 48 | 210 | 0.0 | 0.0 | 0.07 | 0.48 | 0.48 | 99 | 1008.0 |
| 20260507114401 | 48 | 212 | 0.0 | 0.0 | 0.07 | 0.48 | 0.48 | 99 | 1008.0 |
| 20260507113858 | 48 | 234 | 0.0 | 0.9 | 0.05 | 0.47 | 0.47 | 99 | 1007.9 |
| 20260507113355 | 48 | 201 | 0.0 | 0.0 | 0.05 | 0.47 | 0.47 | 99 | 1008.0 |
| 20260507112852 | 48 | 55 | 0.0 | 0.9 | 0.07 | 0.46 | 0.46 | 99 | 1008.1 |
| 20260507112349 | 48 | 203 | 0.0 | 0.0 | 0.07 | 0.46 | 0.46 | 99 | 1008.2 |
| 20260507111847 | 48 | 222 | 1.7 | 1.7 | 0.00 | 0.45 | 0.45 | 99 | 1008.2 |
| 20260507111343 | 48 | 103 | 0.0 | 0.9 | 0.07 | 0.45 | 0.45 | 99 | 1007.6 |
| 20260507110839 | 48 | 191 | 0.0 | 0.0 | 0.07 | 0.45 | 0.45 | 99 | 1008.1 |
| 20260507110336 | 48 | 264 | 0.9 | 0.9 | 0.07 | 0.45 | 0.45 | 99 | 1008.2 |
| 20260507105833 | 48 | 204 | 0.0 | 0.0 | 0.00 | 0.44 | 0.44 | 99 | 1008.2 |
| 20260507105329 | 48 | 197 | 0.0 | 0.9 | 0.00 | 0.44 | 0.44 | 99 | 1007.9 |
| 20260507104826 | 48 | 200 | 0.9 | 0.9 | 0.00 | 0.44 | 0.44 | 99 | 1007.7 |
| 20260507104323 | 48 | 183 | 0.0 | 0.0 | 0.05 | 0.44 | 0.44 | 99 | 1007.2 |
| 20260507103819 | 48 | 101 | 0.0 | 0.0 | 0.05 | 0.44 | 0.44 | 99 | 1007.6 |
| 20260507103315 | 48 | 128 | 0.9 | 0.9 | 0.00 | 0.43 | 0.43 | 99 | 1007.5 |
| 20260507102812 | 48 | 206 | 0.0 | 0.0 | 0.07 | 0.43 | 0.43 | 99 | 1008.0 |
| 20260507102309 | 48 | 211 | 0.0 | 0.0 | 0.07 | 0.43 | 0.43 | 99 | 1007.9 |
| 20260507101805 | 48 | 192 | 1.7 | 1.7 | 0.05 | 0.42 | 0.42 | 99 | 1007.8 |
| 20260507101304 | 48 | 216 | 0.0 | 0.9 | 0.05 | 0.42 | 0.42 | 99 | 1007.8 |
| 20260507100802 | 48 | 213 | 0.0 | 0.0 | 0.00 | 0.41 | 0.41 | 99 | 1008.0 |
| 20260507100300 | 48 | 261 | 0.9 | 1.7 | 0.07 | 0.41 | 0.41 | 99 | 1007.8 |
| 20260507095758 | 48 | 206 | 0.0 | 0.0 | 0.07 | 0.41 | 0.41 | 99 | 1007.6 |
| 20260507095254 | 48 | 225 | 0.9 | 0.9 | 0.00 | 0.40 | 0.40 | 99 | 1007.8 |
| 20260507094751 | 49 | 235 | 0.0 | 0.0 | 0.00 | 0.40 | 0.40 | 99 | 1007.4 |
| 20260507094248 | 49 | 216 | 0.0 | 0.9 | 0.00 | 0.40 | 0.40 | 99 | 1007.4 |
| 20260507093745 | 49 | 265 | 1.7 | 1.7 | 0.05 | 0.40 | 0.40 | 99 | 1007.6 |
| 20260507093244 | 50 | 208 | 0.0 | 0.0 | 0.05 | 0.40 | 0.40 | 99 | 1007.3 |
| 20260507092741 | 50 | 214 | 0.0 | 0.9 | 0.07 | 0.39 | 0.39 | 99 | 1007.1 |
| 20260507092236 | 51 | 222 | 0.0 | 0.9 | 0.07 | 0.39 | 0.39 | 99 | 1007.2 |
| 20260507091733 | 51 | 51 | 0.9 | 1.7 | 0.00 | 0.38 | 0.38 | 99 | 1007.0 |
| 20260507091230 | 51 | 207 | 0.0 | 0.0 | 0.05 | 0.38 | 0.38 | 99 | 1007.6 |
| 20260507090725 | 51 | 202 | 0.0 | 0.0 | 0.05 | 0.38 | 0.38 | 99 | 1007.5 |
| 20260507090222 | 51 | 213 | 0.0 | 0.9 | 0.05 | 0.38 | 0.38 | 99 | 1007.3 |
| 20260507085719 | 51 | 217 | 0.0 | 0.0 | 0.00 | 0.37 | 0.37 | 99 | 1007.0 |
| 20260507085216 | 51 | 186 | 0.0 | 0.0 | 0.00 | 0.37 | 0.37 | 99 | 1006.9 |
| 20260507084713 | 51 | 217 | 0.0 | 0.0 | 0.07 | 0.37 | 0.37 | 99 | 1006.9 |
| 20260507084209 | 51 | 180 | 0.0 | 0.0 | 0.12 | 0.37 | 0.37 | 99 | 1006.8 |
| 20260507083707 | 52 | 211 | 0.0 | 0.0 | 0.12 | 0.37 | 0.37 | 99 | 1006.6 |
| 20260507083204 | 52 | 167 | 0.0 | 0.0 | 0.07 | 0.35 | 0.35 | 99 | 1007.0 |
| 20260507082700 | 52 | 246 | 1.7 | 1.7 | 0.12 | 0.35 | 0.35 | 99 | 1006.9 |
| 20260507082155 | 52 | 160 | 1.7 | 3.5 | 0.12 | 0.35 | 0.35 | 99 | 1006.4 |
| 20260507081653 | 53 | 199 | 0.0 | 0.0 | 0.31 | 0.34 | 0.34 | 99 | 1006.9 |
| 20260507081149 | 53 | 219 | 0.9 | 0.9 | 0.42 | 0.32 | 0.32 | 99 | 1007.0 |
| 20260507080645 | 54 | 132 | 0.9 | 3.5 | 0.47 | 0.29 | 0.29 | 99 | 1006.7 |
| 20260507080143 | 55 | 202 | 0.9 | 0.9 | 0.54 | 0.25 | 0.25 | 99 | 1006.6 |
| 20260507075642 | 55 | 225 | 0.9 | 0.9 | 0.83 | 0.21 | 0.21 | 99 | 1007.3 |
| 20260507075139 | 55 | 185 | 0.0 | 0.9 | 0.83 | 0.16 | 0.16 | 99 | 1006.6 |
| 20260507074636 | 55 | 247 | 1.7 | 1.7 | 0.42 | 0.07 | 0.07 | 99 | 1006.4 |
| 20260507074134 | 55 | 189 | 0.0 | 0.0 | 0.12 | 0.02 | 0.02 | 99 | 1006.2 |
| 20260507073630 | 55 | 196 | 0.0 | 0.0 | 0.00 | 0.00 | 0.00 | 99 | 1005.9 |
| 20260507073127 | 55 | 194 | 0.0 | 0.0 | 0.00 | 0.00 | 0.00 | 99 | 1005.6 |
| 20260507072625 | 55 | 188 | 0.9 | 0.9 | 0.00 | 0.00 | 0.00 | 99 | 1005.8 |
| 20260507072122 | 55 | 202 | 0.0 | 0.0 | 0.00 | 0.00 | 0.00 | 99 | 1005.5 |
| 20260507071619 | 55 | 182 | 0.0 | 0.0 | 0.00 | 0.00 | 0.00 | 99 | 1005.8 |
| 20260507071115 | 55 | 198 | 0.0 | 0.0 | 0.00 | 0.00 | 0.00 | 99 | 1005.8 |
| 20260507070612 | 55 | 208 | 0.0 | 0.0 | 0.00 | 0.00 | 0.00 | 99 | 1005.9 |
| 20260507070109 | 55 | 196 | 0.0 | 0.0 | 0.00 | 0.00 | 0.00 | 99 | 1005.9 |
| 20260507065606 | 55 | 199 | 0.0 | 0.0 | 0.00 | 0.00 | 0.00 | 99 | 1005.7 |
| 20260507065103 | 55 | 195 | 0.0 | 0.0 | 0.00 | 0.00 | 0.00 | 99 | 1005.9 |
| 20260507064600 | 55 | 218 | 0.0 | 0.9 | 0.00 | 0.00 | 0.00 | 99 | 1006.0 |
| 20260507064059 | 55 | 205 | 0.0 | 0.0 | 0.00 | 0.00 | 0.00 | 99 | 1005.8 |
| 20260507063556 | 55 | 203 | 0.0 | 0.0 | 0.00 | 0.00 | 0.00 | 99 | 1005.8 |
| 20260507063053 | 55 | 202 | 0.0 | 0.0 | 0.00 | 0.00 | 0.00 | 99 | 1006.1 |
| 20260507062549 | 55 | 200 | 0.0 | 0.0 | 0.00 | 0.00 | 0.00 | 99 | 1005.8 |
| 20260507062047 | 55 | 210 | 0.0 | 0.0 | 0.00 | 0.00 | 0.00 | 99 | 1005.9 |
| 20260507061545 | 55 | 203 | 0.0 | 0.0 | 0.00 | 0.00 | 0.00 | 99 | 1005.9 |
| 20260507061043 | 55 | 108 | 0.0 | 0.9 | 0.00 | 0.00 | 0.00 | 99 | 1005.9 |
| 20260507060540 | 55 | 222 | 1.7 | 1.7 | 0.00 | 0.00 | 0.00 | 99 | 1006.0 |
| 20260507060037 | 55 | 204 | 0.0 | 0.0 | 0.00 | 0.00 | 0.00 | 99 | 1006.5 |
| 20260507055531 | 55 | 204 | 0.9 | 0.9 | 0.00 | 0.00 | 0.00 | 99 | 1006.1 |
| 20260507055028 | 56 | 210 | 0.0 | 0.0 | 0.00 | 0.00 | 0.00 | 99 | 1006.4 |
| 20260507054524 | 56 | 218 | 0.0 | 0.0 | 0.00 | 0.00 | 0.00 | 99 | 1006.4 |
| 20260507054021 | 56 | 199 | 0.0 | 0.9 | 0.00 | 0.00 | 0.00 | 99 | 1006.4 |
| 20260507053519 | 56 | 188 | 0.9 | 1.7 | 0.00 | 0.00 | 0.00 | 99 | 1006.4 |
| 20260507053017 | 56 | 198 | 0.9 | 0.9 | 0.00 | 0.00 | 0.00 | 99 | 1006.4 |
| 20260507052515 | 56 | 226 | 0.0 | 0.9 | 0.00 | 0.00 | 0.00 | 99 | 1006.5 |
| 20260507052011 | 56 | 181 | 0.9 | 1.7 | 0.00 | 0.00 | 0.00 | 99 | 1006.7 |
| 20260507051509 | 56 | 208 | 0.0 | 0.0 | 0.00 | 0.00 | 0.00 | 99 | 1006.7 |
| 20260507051006 | 56 | 200 | 0.9 | 0.9 | 0.00 | 0.00 | 0.00 | 99 | 1006.5 |
| 20260507050502 | 56 | 221 | 0.9 | 1.7 | 0.00 | 0.00 | 0.00 | 99 | 1006.6 |
| 20260507045959 | 56 | 245 | 0.0 | 0.9 | 0.00 | 0.00 | 0.00 | 99 | 1007.0 |
| 20260507045455 | 56 | 231 | 0.9 | 0.9 | 0.00 | 0.00 | 0.00 | 99 | 1006.8 |
| 20260507044953 | 56 | 197 | 0.0 | 0.0 | 0.00 | 0.00 | 0.00 | 99 | 1006.6 |
| 20260507044449 | 56 | 181 | 0.9 | 1.7 | 0.00 | 0.00 | 0.00 | 99 | 1006.8 |
| 20260507043945 | 56 | 213 | 0.0 | 0.9 | 0.00 | 0.00 | 0.00 | 99 | 1006.8 |
| 20260507043442 | 56 | 206 | 0.0 | 0.0 | 0.00 | 0.00 | 0.00 | 99 | 1006.8 |
| 20260507042938 | 56 | 195 | 1.7 | 1.7 | 0.00 | 0.00 | 0.00 | 99 | 1006.6 |
| 20260507042435 | 56 | 253 | 0.9 | 1.7 | 0.00 | 0.00 | 0.00 | 99 | 1006.5 |
| 20260507041931 | 56 | 213 | 0.0 | 0.9 | 0.00 | 0.00 | 0.00 | 99 | 1006.7 |
| 20260507041427 | 56 | 180 | 0.9 | 0.9 | 0.00 | 0.00 | 0.00 | 99 | 1006.7 |
| 20260507040925 | 56 | 205 | 0.0 | 0.9 | 0.00 | 0.00 | 0.00 | 99 | 1006.7 |
| 20260507040421 | 56 | 223 | 0.9 | 0.9 | 0.00 | 0.00 | 0.00 | 99 | 1006.7 |
| 20260507035917 | 56 | 234 | 0.0 | 0.9 | 0.00 | 0.17 | 0.17 | 99 | 1006.6 |
| 20260507035413 | 56 | 217 | 0.0 | 0.9 | 0.00 | 0.17 | 0.17 | 99 | 1006.6 |
| 20260507034910 | 56 | 205 | 0.0 | 0.0 | 0.00 | 0.17 | 0.17 | 99 | 1006.8 |
| 20260507034407 | 56 | 226 | 0.9 | 0.9 | 0.00 | 0.17 | 0.17 | 99 | 1006.9 |
| 20260507033905 | 56 | 156 | 1.7 | 1.7 | 0.00 | 0.17 | 0.17 | 99 | 1006.9 |
| 20260507033403 | 56 | 219 | 0.9 | 1.7 | 0.00 | 0.17 | 0.17 | 99 | 1007.2 |
| 20260507032859 | 56 | 206 | 0.0 | 0.0 | 0.00 | 0.17 | 0.17 | 99 | 1006.9 |
| 20260507032356 | 55 | 180 | 0.0 | 0.9 | 0.00 | 0.17 | 0.17 | 99 | 1007.0 |
| 20260507031852 | 55 | 225 | 1.7 | 2.6 | 0.00 | 0.17 | 0.17 | 99 | 1006.7 |
| 20260507031349 | 55 | 212 | 1.7 | 1.7 | 0.00 | 0.17 | 0.17 | 99 | 1006.8 |
| 20260507030846 | 55 | 201 | 3.5 | 6.1 | 0.00 | 0.17 | 0.17 | 99 | 1006.8 |
| 20260507030343 | 55 | 167 | 2.6 | 3.5 | 0.00 | 0.17 | 0.17 | 99 | 1006.8 |
| 20260507025840 | 55 | 207 | 0.9 | 1.7 | 0.00 | 0.17 | 0.17 | 99 | 1006.9 |
| 20260507025337 | 55 | 199 | 0.9 | 2.6 | 0.00 | 0.17 | 0.17 | 99 | 1006.8 |
| 20260507024835 | 55 | 247 | 0.9 | 1.7 | 0.00 | 0.17 | 0.17 | 99 | 1006.8 |
| 20260507024332 | 55 | 210 | 0.0 | 0.0 | 0.00 | 0.17 | 0.17 | 99 | 1006.6 |
| 20260507023828 | 55 | 209 | 0.0 | 0.9 | 0.00 | 0.17 | 0.17 | 99 | 1006.6 |
| 20260507023325 | 55 | 184 | 0.0 | 0.9 | 0.00 | 0.17 | 0.17 | 99 | 1006.6 |
| 20260507022823 | 55 | 234 | 0.0 | 0.9 | 0.00 | 0.17 | 0.17 | 99 | 1006.5 |
| 20260507022319 | 55 | 240 | 0.9 | 2.6 | 0.00 | 0.17 | 0.17 | 99 | 1006.5 |
| 20260507021815 | 55 | 227 | 1.7 | 1.7 | 0.00 | 0.17 | 0.17 | 99 | 1006.9 |
| 20260507021311 | 55 | 227 | 0.9 | 1.7 | 0.00 | 0.17 | 0.17 | 99 | 1006.8 |
| 20260507020809 | 55 | 218 | 1.7 | 2.6 | 0.00 | 0.17 | 0.17 | 99 | 1006.8 |
| 20260507020305 | 55 | 242 | 0.9 | 0.9 | 0.00 | 0.17 | 0.17 | 99 | 1007.2 |
| 20260507015802 | 55 | 198 | 0.9 | 0.9 | 0.00 | 0.17 | 0.17 | 99 | 1007.1 |
| 20260507015300 | 55 | 351 | 0.9 | 2.6 | 0.00 | 0.17 | 0.17 | 99 | 1007.5 |
| 20260507014757 | 55 | 188 | 1.7 | 3.5 | 0.00 | 0.17 | 0.17 | 99 | 1007.4 |
| 20260507014253 | 55 | 231 | 0.9 | 0.9 | 0.00 | 0.17 | 0.17 | 99 | 1007.3 |
| 20260507013750 | 55 | 218 | 3.5 | 3.5 | 0.00 | 0.17 | 0.17 | 99 | 1007.1 |
| 20260507013247 | 55 | 212 | 0.9 | 1.7 | 0.00 | 0.17 | 0.17 | 99 | 1007.4 |
| 20260507012744 | 55 | 236 | 0.9 | 1.7 | 0.00 | 0.17 | 0.17 | 99 | 1007.3 |
| 20260507012244 | 55 | 212 | 0.0 | 0.9 | 0.00 | 0.17 | 0.17 | 99 | 1007.3 |
| 20260507011743 | 55 | 195 | 4.3 | 6.1 | 0.00 | 0.17 | 0.17 | 99 | 1007.4 |
| 20260507011239 | 55 | 15 | 1.7 | 2.6 | 0.00 | 0.17 | 0.17 | 99 | 1007.4 |
| 20260507010738 | 55 | 47 | 1.7 | 2.6 | 0.00 | 0.17 | 0.17 | 99 | 1007.6 |
| 20260507010234 | 55 | 206 | 1.7 | 1.7 | 0.00 | 0.17 | 0.17 | 99 | 1007.5 |
| 20260507005732 | 55 | 218 | 1.7 | 2.6 | 0.00 | 0.17 | 0.17 | 99 | 1007.5 |
| 20260507005228 | 56 | 235 | 4.3 | 7.0 | 0.00 | 0.17 | 0.17 | 99 | 1007.4 |
| 20260507004725 | 56 | 199 | 1.7 | 2.6 | 0.00 | 0.17 | 0.17 | 99 | 1007.6 |
| 20260507004223 | 56 | 249 | 3.5 | 3.5 | 0.00 | 0.17 | 0.17 | 99 | 1007.4 |
| 20260507003719 | 56 | 213 | 3.5 | 3.5 | 0.00 | 0.17 | 0.17 | 99 | 1007.3 |
| 20260507003214 | 56 | 252 | 1.7 | 2.6 | 0.07 | 0.17 | 0.17 | 99 | 1007.3 |
| 20260507002710 | 56 | 232 | 3.5 | 5.2 | 0.07 | 0.17 | 0.17 | 99 | 1007.3 |
| 20260507002206 | 56 | 216 | 1.7 | 1.7 | 0.00 | 0.16 | 0.16 | 99 | 1007.3 |
| 20260507001703 | 56 | 203 | 3.5 | 3.5 | 0.00 | 0.16 | 0.16 | 99 | 1007.2 |
| 20260507001201 | 56 | 133 | 1.7 | 1.7 | 0.00 | 0.16 | 0.16 | 99 | 1007.3 |
| 20260507000657 | 56 | 187 | 0.9 | 0.9 | 0.00 | 0.16 | 0.16 | 99 | 1007.5 |
| 20260507000152 | 56 | 170 | 0.9 | 0.9 | 0.00 | 0.16 | 0.16 | 99 | 1007.2 |
| 20260506235650 | 56 | 197 | 1.7 | 3.5 | 0.00 | 0.16 | 0.16 | 99 | 1007.5 |
| 20260506235145 | 56 | 159 | 0.9 | 0.9 | 0.05 | 0.16 | 0.16 | 99 | 1007.2 |
| 20260506234642 | 57 | 230 | 1.7 | 1.7 | 0.05 | 0.16 | 0.16 | 99 | 1007.2 |
| 20260506234139 | 56 | 158 | 3.5 | 6.1 | 0.00 | 0.15 | 0.15 | 99 | 1007.4 |
| 20260506233636 | 56 | 191 | 0.9 | 0.9 | 0.07 | 0.15 | 0.15 | 99 | 1007.5 |
| 20260506233133 | 56 | 154 | 1.7 | 1.7 | 0.07 | 0.15 | 0.15 | 98 | 1007.3 |
| 20260506232629 | 56 | 222 | 0.9 | 0.9 | 0.00 | 0.14 | 0.14 | 98 | 1007.4 |
| 20260506232125 | 56 | 220 | 1.7 | 2.6 | 0.05 | 0.14 | 0.14 | 98 | 1007.5 |
| 20260506231622 | 56 | 243 | 7.0 | 8.7 | 0.12 | 0.14 | 0.14 | 98 | 1007.6 |
| 20260506231121 | 56 | 237 | 3.5 | 5.2 | 0.07 | 0.13 | 0.13 | 98 | 1007.4 |
| 20260506230617 | 56 | 187 | 3.5 | 5.2 | 0.07 | 0.12 | 0.12 | 98 | 1007.4 |
| 20260506230114 | 56 | 194 | 0.9 | 1.7 | 0.12 | 0.12 | 0.12 | 98 | 1007.4 |
| 20260506225611 | 56 | 202 | 5.2 | 8.7 | 0.12 | 0.11 | 0.11 | 98 | 1007.3 |
| 20260506225107 | 56 | 174 | 2.6 | 2.6 | 0.07 | 0.10 | 0.10 | 98 | 1007.3 |
| 20260506224604 | 56 | 226 | 1.7 | 2.6 | 0.05 | 0.09 | 0.09 | 97 | 1007.3 |
| 20260506224101 | 57 | 189 | 0.9 | 2.6 | 0.12 | 0.09 | 0.09 | 97 | 1007.6 |
| 20260506223556 | 57 | 106 | 1.7 | 2.6 | 0.07 | 0.08 | 0.08 | 97 | 1007.3 |
| 20260506223053 | 57 | 222 | 2.6 | 5.2 | 0.05 | 0.07 | 0.07 | 97 | 1007.5 |
| 20260506222550 | 57 | 203 | 0.9 | 0.9 | 0.05 | 0.07 | 0.07 | 96 | 1007.5 |
| 20260506222046 | 57 | 173 | 5.2 | 7.0 | 0.00 | 0.06 | 0.06 | 96 | 1007.7 |
| 20260506221544 | 57 | 86 | 1.7 | 3.5 | 0.00 | 0.06 | 0.06 | 96 | 1007.7 |
| 20260506221042 | 57 | 211 | 4.3 | 6.1 | 0.00 | 0.06 | 0.06 | 96 | 1007.8 |
| 20260506220537 | 57 | 225 | 2.6 | 3.5 | 0.00 | 0.06 | 0.06 | 96 | 1007.9 |
| 20260506220033 | 57 | 233 | 2.6 | 5.2 | 0.00 | 0.06 | 0.06 | 96 | 1008.0 |
| 20260506215530 | 57 | 238 | 3.5 | 3.5 | 0.00 | 0.06 | 0.06 | 97 | 1007.9 |
| 20260506215026 | 57 | 203 | 0.9 | 1.7 | 0.00 | 0.06 | 0.06 | 97 | 1007.9 |
| 20260506214523 | 57 | 231 | 1.7 | 2.6 | 0.00 | 0.06 | 0.06 | 97 | 1007.8 |
| 20260506214020 | 57 | 293 | 1.7 | 2.6 | 0.00 | 0.06 | 0.06 | 96 | 1008.0 |
| 20260506213518 | 57 | 152 | 0.9 | 2.6 | 0.07 | 0.06 | 0.06 | 96 | 1007.9 |
| 20260506213015 | 58 | 198 | 1.7 | 2.6 | 0.12 | 0.06 | 0.06 | 96 | 1007.9 |
| 20260506212512 | 58 | 246 | 0.9 | 0.9 | 0.12 | 0.05 | 0.05 | 95 | 1008.0 |
| 20260506212007 | 58 | 202 | 0.0 | 0.0 | 0.12 | 0.04 | 0.04 | 94 | 1007.9 |
| 20260506211502 | 58 | 313 | 2.6 | 2.6 | 0.05 | 0.03 | 0.03 | 94 | 1008.2 |
| 20260506211000 | 59 | 260 | 3.5 | 5.2 | 0.00 | 0.02 | 0.02 | 93 | 1008.2 |
| 20260506210456 | 59 | 79 | 1.7 | 2.6 | 0.00 | 0.02 | 0.02 | 91 | 1008.0 |
| 20260506205953 | 59 | 212 | 4.3 | 7.8 | 0.00 | 0.02 | 0.02 | 89 | 1008.1 |
| 20260506205449 | 59 | 164 | 3.5 | 5.2 | 0.00 | 0.02 | 0.02 | 89 | 1008.2 |
| 20260506204946 | 59 | 205 | 2.6 | 3.5 | 0.00 | 0.02 | 0.02 | 91 | 1008.1 |
| 20260506204444 | 59 | 222 | 1.7 | 2.6 | 0.00 | 0.02 | 0.02 | 91 | 1008.3 |
| 20260506203941 | 59 | 231 | 0.9 | 1.7 | 0.00 | 0.02 | 0.02 | 91 | 1008.3 |
| 20260506203438 | 59 | 213 | 2.6 | 5.2 | 0.00 | 0.02 | 0.02 | 92 | 1008.3 |
| 20260506202935 | 59 | 193 | 1.7 | 2.6 | 0.00 | 0.02 | 0.02 | 93 | 1008.4 |
| 20260506202432 | 59 | 102 | 1.7 | 1.7 | 0.00 | 0.02 | 0.02 | 92 | 1008.7 |
| 20260506201928 | 59 | 185 | 2.6 | 3.5 | 0.00 | 0.02 | 0.02 | 92 | 1008.6 |
| 20260506201426 | 59 | 223 | 0.9 | 1.7 | 0.00 | 0.02 | 0.02 | 92 | 1008.4 |
| 20260506200922 | 59 | 78 | 1.7 | 2.6 | 0.07 | 0.02 | 0.02 | 92 | 1008.6 |
| 20260506200419 | 58 | 192 | 2.6 | 3.5 | 0.07 | 0.02 | 0.02 | 91 | 1008.7 |